Portada
METAR-TAF:

METAR-TAF

Aeroports :

Mar del Plata, Argentina

latitud: 37-56S, longitud: 057-35W, altitud: 18 m

Observació

L'informe es va fer fa 30 minuts, a les 09:00 UTC
Vent 3 kt del Oest
Temperatura -3°C
Humitat 93%
Pressió 1031 hPa
Visibilitat 10 km o més
Núvols disperses a una alçada de 3000 ft

METAR: SAZM 200900Z 27003KT 9999 SCT030 M03/M04 Q1031

Hora: 06:30 (09:30 UTC)

Pronòstic

L'informe es va fer fa 1 hora i 0 minuts, a les 08:30 UTC
Pronòstic vàlid del 20 a les 09 UTC al 21 a les 06 UTC
Vent 5 kt del Oest
Visibilitat 10 km o més
Cel ennuvolat a una alçada de 3000 ft
Evolucionant progressivament
l' 20 a les 15 UTC al 20 a les 17 UTC
Vent 10 kt del Sud/Sud-Est
Núvols disperses a una alçada de 3000 ft
Cel ennuvolat a una alçada de 10000 ft

TAF: SAZM 200830Z 2009/2106 27005KT 9999 BKN030 TX08/2018Z TNM03/2011Z BECMG 2015/2017 16010KT SCT030 BKN100

Observacions i pronòstics meteorològics de més de 4000 aeroports (METAR i TAF).

Les estacions disponibles són els punts grocs i vermells al mapa.

Posi el ratolí al punt desitjat per veure el nom de l'estació.

Feu clic per veure les observacions i els pronòstics meteorològics.

Per canviar el mapa: feu clic els botons verds amb una creu de color negre per apropar; al botó verd amb un guió per allunyar la imatge; o en les fletxes verdes per a mapes adjacents.


METAR-TAF: